Time;durP1;ratioP1;P1;durP2;ratioP2;P2;SDS_P1;SDS_P2;PMS_P1;PMS_P2;Temp;Humidity;BMP_temperature;BMP_pressure;BME280_temperature;BME280_humidity;BME280_pressure;Samples;Min_cycle;Max_cycle;Signal;HPM_P1;HPM_P2
2022/07/15 00:01:24;;;;;;;7.95;4.05;;;;;;;;;;4993539;28;20045;-69
2022/07/15 00:03:50;;;;;;;8.30;4.32;;;;;;;;;;4993247;28;20121;-71
2022/07/15 00:06:16;;;;;;;8.27;3.80;;;;;;;;;;4993588;28;20062;-69
2022/07/15 00:08:42;;;;;;;8.50;3.72;;;;;;;;;;4993464;28;20507;-70
2022/07/15 00:11:08;;;;;;;9.40;3.80;;;;;;;;;;4993561;28;20030;-69
2022/07/15 00:13:34;;;;;;;10.00;4.20;;;;;;;;;;4993558;28;20027;-70
2022/07/15 00:16:00;;;;;;;10.02;4.57;;;;;;;;;;4993541;28;20033;-69
2022/07/15 00:18:26;;;;;;;7.03;3.92;;;;;;;;;;4993978;28;20027;-70
2022/07/15 00:20:52;;;;;;;9.68;4.22;;;;;;;;;;4995407;28;20053;-70
2022/07/15 00:23:18;;;;;;;10.98;3.85;;;;;;;;;;4997200;28;20030;-70
2022/07/15 00:25:44;;;;;;;9.45;4.10;;;;;;;;;;4997420;28;20034;-71
2022/07/15 00:28:10;;;;;;;10.68;3.72;;;;;;;;;;4997066;28;20041;-70
2022/07/15 00:30:37;;;;;;;9.80;3.63;;;;;;;;;;4997343;28;20408;-70
2022/07/15 00:33:03;;;;;;;7.63;3.80;;;;;;;;;;4997060;28;20022;-69
2022/07/15 00:35:30;;;;;;;6.65;3.97;;;;;;;;;;4997322;28;20170;-71
2022/07/15 00:37:56;;;;;;;9.43;3.90;;;;;;;;;;4996981;28;20460;-70
2022/07/15 00:40:23;;;;;;;8.40;3.92;;;;;;;;;;4996938;28;20031;-71
2022/07/15 00:42:49;;;;;;;9.65;3.78;;;;;;;;;;4996867;28;20030;-69
2022/07/15 00:45:17;;;;;;;7.00;3.47;;;;;;;;;;4996826;28;20500;-71
2022/07/15 00:47:47;;;;;;;9.23;4.40;;;;;;;;;;4979196;28;20018;-71
2022/07/15 00:50:14;;;;;;;7.63;3.60;;;;;;;;;;4997044;28;20030;-70
2022/07/15 00:52:41;;;;;;;5.25;3.25;;;;;;;;;;4996684;28;20023;-70
2022/07/15 00:55:09;;;;;;;8.70;3.97;;;;;;;;;;4996618;28;20037;-70
2022/07/15 00:57:37;;;;;;;10.52;4.43;;;;;;;;;;4997125;28;20073;-69
2022/07/15 01:00:04;;;;;;;10.20;4.22;;;;;;;;;;4996708;28;20062;-70
2022/07/15 01:02:31;;;;;;;8.52;4.03;;;;;;;;;;4996740;28;20568;-69
2022/07/15 01:04:58;;;;;;;8.25;4.22;;;;;;;;;;4996418;28;20037;-70
2022/07/15 01:07:24;;;;;;;9.63;4.38;;;;;;;;;;4996609;28;20419;-69
2022/07/15 01:09:50;;;;;;;9.65;4.70;;;;;;;;;;4996310;28;20026;-70
2022/07/15 01:12:16;;;;;;;8.05;4.13;;;;;;;;;;4996356;28;20018;-70
2022/07/15 01:14:42;;;;;;;11.27;4.15;;;;;;;;;;4996248;28;20023;-70
2022/07/15 01:17:10;;;;;;;10.98;4.07;;;;;;;;;;4996698;28;20035;-69
2022/07/15 01:19:36;;;;;;;8.38;3.72;;;;;;;;;;4996162;28;20034;-69
2022/07/15 01:22:02;;;;;;;8.35;3.95;;;;;;;;;;4996447;28;20026;-69
2022/07/15 01:24:28;;;;;;;11.40;4.90;;;;;;;;;;4996081;28;20477;-70
2022/07/15 01:26:54;;;;;;;9.60;4.05;;;;;;;;;;4996036;28;20033;-69
2022/07/15 01:29:20;;;;;;;7.70;4.00;;;;;;;;;;4996190;28;20396;-69
2022/07/15 01:31:46;;;;;;;10.23;3.88;;;;;;;;;;4978282;28;20030;-71
2022/07/15 01:34:12;;;;;;;7.72;4.15;;;;;;;;;;4995943;28;20022;-70
2022/07/15 01:36:38;;;;;;;7.93;3.80;;;;;;;;;;4996176;28;20029;-70
2022/07/15 01:39:04;;;;;;;6.50;3.90;;;;;;;;;;4995938;28;20062;-69
2022/07/15 01:41:30;;;;;;;7.00;3.70;;;;;;;;;;4996090;28;20027;-70
2022/07/15 01:43:56;;;;;;;7.38;3.75;;;;;;;;;;4995825;28;20026;-70
2022/07/15 01:46:22;;;;;;;8.10;4.60;;;;;;;;;;4995748;28;20480;-70
2022/07/15 01:51:33;;;;;;;10.45;4.13;;;;;;;;;;4995640;28;20038;-69
2022/07/15 01:53:59;;;;;;;7.28;4.07;;;;;;;;;;4995563;28;20026;-69
2022/07/15 01:56:25;;;;;;;8.18;4.13;;;;;;;;;;4995560;28;20061;-71
2022/07/15 01:58:51;;;;;;;6.13;3.55;;;;;;;;;;4995715;28;20076;-71
2022/07/15 02:01:18;;;;;;;9.48;4.22;;;;;;;;;;4995656;28;20027;-69
2022/07/15 02:03:44;;;;;;;10.07;4.72;;;;;;;;;;4994994;28;20053;-71
2022/07/15 02:06:10;;;;;;;11.68;4.10;;;;;;;;;;4995321;28;20037;-69
2022/07/15 02:08:36;;;;;;;8.18;4.20;;;;;;;;;;4995479;28;20392;-69
2022/07/15 02:11:03;;;;;;;8.40;4.13;;;;;;;;;;4995222;28;20043;-70
2022/07/15 02:13:29;;;;;;;8.82;4.30;;;;;;;;;;4995179;28;20027;-70
2022/07/15 02:15:55;;;;;;;11.45;4.70;;;;;;;;;;4995392;28;20027;-69
2022/07/15 02:18:21;;;;;;;8.68;4.72;;;;;;;;;;4995891;28;20030;-71
2022/07/15 02:20:47;;;;;;;14.80;4.90;;;;;;;;;;4995346;28;20037;-70
2022/07/15 02:23:13;;;;;;;9.20;4.25;;;;;;;;;;4977564;28;20057;-70
2022/07/15 02:25:39;;;;;;;10.50;4.63;;;;;;;;;;4995209;28;20026;-69
2022/07/15 02:28:06;;;;;;;9.32;4.18;;;;;;;;;;4994801;28;20077;-70
2022/07/15 02:30:33;;;;;;;9.27;4.25;;;;;;;;;;4995116;28;20473;-69
2022/07/15 02:32:59;;;;;;;6.93;4.07;;;;;;;;;;4994839;28;20022;-70
2022/07/15 02:35:26;;;;;;;7.22;3.63;;;;;;;;;;4994831;28;20081;-72
2022/07/15 02:37:52;;;;;;;9.52;4.40;;;;;;;;;;4994762;28;20022;-70
2022/07/15 02:40:19;;;;;;;7.28;4.18;;;;;;;;;;4995199;28;20030;-70
2022/07/15 02:42:49;;;;;;;10.10;3.95;;;;;;;;;;4994144;28;20062;-71
2022/07/15 02:45:15;;;;;;;11.73;5.13;;;;;;;;;;4994618;28;20072;-70
2022/07/15 02:47:41;;;;;;;7.60;4.25;;;;;;;;;;4994443;28;20080;-70
2022/07/15 02:50:07;;;;;;;11.02;5.00;;;;;;;;;;4994541;28;20057;-69
2022/07/15 02:52:34;;;;;;;7.70;4.13;;;;;;;;;;4995025;28;20026;-70
2022/07/15 02:55:00;;;;;;;10.68;4.28;;;;;;;;;;4994672;28;20026;-70
2022/07/15 02:57:26;;;;;;;8.00;4.32;;;;;;;;;;4994354;28;20025;-70
2022/07/15 02:59:52;;;;;;;7.95;4.50;;;;;;;;;;4994276;28;20022;-71
2022/07/15 03:02:18;;;;;;;7.05;4.38;;;;;;;;;;4994101;28;20073;-69
2022/07/15 03:04:44;;;;;;;7.57;4.53;;;;;;;;;;4994348;28;20045;-70
2022/07/15 03:07:10;;;;;;;7.82;4.45;;;;;;;;;;4994423;28;20022;-69
2022/07/15 03:09:37;;;;;;;9.60;4.45;;;;;;;;;;4994205;28;20145;-70
2022/07/15 03:12:03;;;;;;;10.00;3.95;;;;;;;;;;4994716;28;20480;-71
2022/07/15 03:14:29;;;;;;;9.27;4.07;;;;;;;;;;4994112;28;20030;-70
2022/07/15 03:16:55;;;;;;;9.90;3.53;;;;;;;;;;4994366;28;20022;-70
2022/07/15 03:19:21;;;;;;;7.22;4.10;;;;;;;;;;4994773;28;20027;-70
2022/07/15 03:21:48;;;;;;;9.98;4.70;;;;;;;;;;4994054;28;20411;-70
2022/07/15 03:24:14;;;;;;;10.27;4.55;;;;;;;;;;4993994;28;20034;-69
2022/07/15 03:26:40;;;;;;;6.22;3.60;;;;;;;;;;4994520;28;20077;-70
2022/07/15 03:29:07;;;;;;;9.00;3.97;;;;;;;;;;4994141;28;20077;-69
2022/07/15 03:31:33;;;;;;;10.30;4.32;;;;;;;;;;4994193;28;20019;-70
2022/07/15 03:33:59;;;;;;;6.35;3.88;;;;;;;;;;4976435;28;20026;-69
2022/07/15 03:36:25;;;;;;;7.28;3.80;;;;;;;;;;4994097;28;20424;-70
2022/07/15 03:38:51;;;;;;;8.50;4.03;;;;;;;;;;4993855;28;20034;-70
2022/07/15 03:41:21;;;;;;;9.68;4.32;;;;;;;;;;4993852;28;20030;-70
2022/07/15 03:43:47;;;;;;;12.50;4.68;;;;;;;;;;4994055;28;20444;-70
2022/07/15 03:46:16;;;;;;;9.85;4.47;;;;;;;;;;4993770;28;20077;-70
2022/07/15 03:48:42;;;;;;;9.32;5.15;;;;;;;;;;4993694;28;20034;-69
2022/07/15 03:51:08;;;;;;;10.82;5.10;;;;;;;;;;4993935;28;20392;-70
2022/07/15 03:53:34;;;;;;;9.18;4.85;;;;;;;;;;4993705;28;20108;-70
2022/07/15 03:56:00;;;;;;;7.40;4.75;;;;;;;;;;4995727;28;20033;-70
2022/07/15 03:58:26;;;;;;;8.25;4.07;;;;;;;;;;4997664;28;20026;-69
2022/07/15 04:00:52;;;;;;;6.60;4.68;;;;;;;;;;4997603;28;20158;-68
2022/07/15 04:03:18;;;;;;;5.72;3.80;;;;;;;;;;4997583;28;20409;-69
2022/07/15 04:05:44;;;;;;;10.93;4.53;;;;;;;;;;4997569;28;20033;-70
2022/07/15 04:08:10;;;;;;;9.18;4.55;;;;;;;;;;4997462;28;20030;-71
2022/07/15 04:10:37;;;;;;;9.00;3.97;;;;;;;;;;4997487;28;20041;-70
2022/07/15 04:13:03;;;;;;;7.20;3.83;;;;;;;;;;4997496;28;20022;-69
2022/07/15 04:15:29;;;;;;;8.18;4.70;;;;;;;;;;4997425;28;20023;-71
2022/07/15 04:17:58;;;;;;;8.52;3.72;;;;;;;;;;4998120;28;20034;-70
2022/07/15 04:20:24;;;;;;;9.10;4.40;;;;;;;;;;4997552;28;20030;-70
2022/07/15 04:22:50;;;;;;;9.93;4.35;;;;;;;;;;4979737;28;20034;-69
2022/07/15 04:25:20;;;;;;;7.28;3.70;;;;;;;;;;4997189;28;20041;-69
2022/07/15 04:27:47;;;;;;;9.70;4.07;;;;;;;;;;4997714;28;20030;-70
2022/07/15 04:30:13;;;;;;;8.75;3.90;;;;;;;;;;4997131;28;20189;-70
2022/07/15 04:32:39;;;;;;;11.55;4.28;;;;;;;;;;4997595;28;20511;-70
2022/07/15 04:35:06;;;;;;;9.27;4.32;;;;;;;;;;4997068;28;20022;-69
2022/07/15 04:37:32;;;;;;;7.53;4.13;;;;;;;;;;4997278;28;20027;-70
2022/07/15 04:39:58;;;;;;;8.13;4.30;;;;;;;;;;4996917;28;20045;-70
2022/07/15 04:42:24;;;;;;;8.57;4.28;;;;;;;;;;4996870;28;20034;-70
2022/07/15 04:44:50;;;;;;;11.82;4.63;;;;;;;;;;4996856;28;20037;-69
2022/07/15 04:47:16;;;;;;;13.15;4.60;;;;;;;;;;4996704;28;20027;-69
2022/07/15 04:52:27;;;;;;;12.02;4.32;;;;;;;;;;4997063;28;20033;-69
2022/07/15 04:54:53;;;;;;;9.00;4.55;;;;;;;;;;4996937;28;20432;-69
2022/07/15 04:57:20;;;;;;;7.60;4.00;;;;;;;;;;4996664;28;20026;-70
2022/07/15 04:59:46;;;;;;;7.97;3.97;;;;;;;;;;4997054;28;20025;-68
2022/07/15 05:02:12;;;;;;;8.35;4.45;;;;;;;;;;4978836;28;20378;-70
2022/07/15 05:04:41;;;;;;;9.52;4.30;;;;;;;;;;4996821;28;20443;-70
2022/07/15 05:07:07;;;;;;;6.95;4.10;;;;;;;;;;4996183;28;20069;-69
2022/07/15 05:09:34;;;;;;;8.68;4.03;;;;;;;;;;4996340;28;20179;-69
2022/07/15 05:11:59;;;;;;;10.27;4.43;;;;;;;;;;4996356;28;20027;-70
2022/07/15 05:14:25;;;;;;;8.68;4.20;;;;;;;;;;4996327;28;20029;-69
2022/07/15 05:16:52;;;;;;;8.00;3.95;;;;;;;;;;4996574;28;20022;-70
2022/07/15 05:19:18;;;;;;;9.40;3.97;;;;;;;;;;4996744;28;20030;-70
2022/07/15 05:21:44;;;;;;;10.40;4.35;;;;;;;;;;4996204;28;20108;-69
2022/07/15 05:24:10;;;;;;;6.32;3.97;;;;;;;;;;4996184;28;20030;-69
2022/07/15 05:26:36;;;;;;;9.23;4.25;;;;;;;;;;4996410;28;20031;-69
2022/07/15 05:29:02;;;;;;;9.75;4.18;;;;;;;;;;4978511;28;20034;-70
2022/07/15 05:31:28;;;;;;;8.25;4.03;;;;;;;;;;4978545;28;20022;-70
2022/07/15 05:33:54;;;;;;;9.50;4.28;;;;;;;;;;4995948;28;20081;-70
2022/07/15 05:36:20;;;;;;;7.75;4.07;;;;;;;;;;4995906;28;20050;-71
2022/07/15 05:38:46;;;;;;;7.32;4.22;;;;;;;;;;4996143;28;20080;-70
2022/07/15 05:41:12;;;;;;;9.18;4.03;;;;;;;;;;4978407;28;20023;-69
2022/07/15 05:43:38;;;;;;;9.85;4.30;;;;;;;;;;4995777;28;20026;-70
2022/07/15 05:46:05;;;;;;;10.45;4.53;;;;;;;;;;4996008;28;20026;-68
2022/07/15 05:48:31;;;;;;;11.13;4.00;;;;;;;;;;4996186;28;20117;-69
2022/07/15 05:50:58;;;;;;;7.45;4.13;;;;;;;;;;4995965;28;20034;-71
2022/07/15 05:53:24;;;;;;;8.60;4.05;;;;;;;;;;4995684;28;20054;-70
2022/07/15 05:55:52;;;;;;;9.73;4.63;;;;;;;;;;4995507;28;20492;-69
2022/07/15 05:58:18;;;;;;;9.88;4.10;;;;;;;;;;4995788;28;20026;-69
2022/07/15 06:00:44;;;;;;;8.50;4.03;;;;;;;;;;4995443;28;20408;-70
2022/07/15 06:03:10;;;;;;;8.75;4.00;;;;;;;;;;4995217;28;20054;-69
2022/07/15 06:05:36;;;;;;;10.38;3.85;;;;;;;;;;4995352;28;20022;-70
2022/07/15 06:08:02;;;;;;;8.60;3.55;;;;;;;;;;4995530;28;20033;-70
2022/07/15 06:10:28;;;;;;;12.07;3.65;;;;;;;;;;4995276;28;20022;-69
2022/07/15 06:12:55;;;;;;;5.68;3.45;;;;;;;;;;4995270;28;20046;-70
2022/07/15 06:15:22;;;;;;;7.80;3.35;;;;;;;;;;4995205;28;20014;-68
2022/07/15 06:17:49;;;;;;;5.97;3.13;;;;;;;;;;4994800;28;20428;-72
2022/07/15 06:20:15;;;;;;;7.00;3.25;;;;;;;;;;4995646;28;20026;-71
2022/07/15 06:22:41;;;;;;;7.82;3.50;;;;;;;;;;4995029;28;20073;-70
2022/07/15 06:25:08;;;;;;;6.63;3.40;;;;;;;;;;4995558;28;20026;-69
2022/07/15 06:27:34;;;;;;;8.15;3.42;;;;;;;;;;4995418;28;20038;-70
2022/07/15 06:30:01;;;;;;;8.45;3.85;;;;;;;;;;4995182;28;20081;-70
2022/07/15 06:32:27;;;;;;;7.82;3.15;;;;;;;;;;4994860;28;20026;-70
2022/07/15 06:34:53;;;;;;;12.70;3.53;;;;;;;;;;4994776;28;20073;-70
2022/07/15 06:37:19;;;;;;;7.70;3.03;;;;;;;;;;4994795;28;20496;-70
2022/07/15 06:39:45;;;;;;;7.95;3.35;;;;;;;;;;4994671;28;20023;-71
2022/07/15 06:42:11;;;;;;;12.60;3.85;;;;;;;;;;4994919;28;20026;-70
2022/07/15 06:44:37;;;;;;;7.45;2.83;;;;;;;;;;4994934;28;20027;-71
2022/07/15 06:47:06;;;;;;;7.32;2.92;;;;;;;;;;4994874;28;20023;-71
2022/07/15 06:49:32;;;;;;;6.65;3.17;;;;;;;;;;4994702;28;20022;-71
2022/07/15 06:51:58;;;;;;;8.93;3.33;;;;;;;;;;4994799;28;20396;-71
2022/07/15 06:54:24;;;;;;;7.70;2.70;;;;;;;;;;4994496;28;20595;-71
2022/07/15 06:56:51;;;;;;;8.60;2.83;;;;;;;;;;4994404;28;20024;-71
2022/07/15 06:59:17;;;;;;;16.60;3.83;;;;;;;;;;4994318;28;20030;-71
2022/07/15 07:01:43;;;;;;;8.68;3.00;;;;;;;;;;4994614;28;20027;-71
2022/07/15 07:04:09;;;;;;;7.47;3.20;;;;;;;;;;4993918;28;20046;-70
2022/07/15 07:06:35;;;;;;;9.82;3.17;;;;;;;;;;4994780;28;20109;-70
2022/07/15 07:09:01;;;;;;;7.30;2.67;;;;;;;;;;4994675;28;20081;-72
2022/07/15 07:11:27;;;;;;;7.95;3.25;;;;;;;;;;4994230;28;20528;-71
2022/07/15 07:13:53;;;;;;;11.55;2.63;;;;;;;;;;4994178;28;20027;-71
2022/07/15 07:16:19;;;;;;;11.05;3.55;;;;;;;;;;4994176;28;20035;-71
2022/07/15 07:18:47;;;;;;;7.22;2.80;;;;;;;;;;4994880;28;20030;-70
2022/07/15 07:21:13;;;;;;;5.35;2.50;;;;;;;;;;4994384;28;20526;-70
2022/07/15 07:23:39;;;;;;;5.95;2.90;;;;;;;;;;4994088;28;20031;-70
2022/07/15 07:26:06;;;;;;;6.28;2.80;;;;;;;;;;4993997;28;20054;-71
2022/07/15 07:28:32;;;;;;;6.95;2.95;;;;;;;;;;4994165;28;20551;-70
2022/07/15 07:30:59;;;;;;;6.65;2.30;;;;;;;;;;4993772;28;20022;-70
2022/07/15 07:33:25;;;;;;;6.50;2.80;;;;;;;;;;4993869;28;20026;-70
2022/07/15 07:35:52;;;;;;;7.20;2.50;;;;;;;;;;4994150;28;20439;-71
2022/07/15 07:38:19;;;;;;;7.55;2.70;;;;;;;;;;4976421;28;20373;-71
2022/07/15 07:40:47;;;;;;;6.88;2.30;;;;;;;;;;4994054;28;20033;-70
2022/07/15 07:43:14;;;;;;;6.15;2.58;;;;;;;;;;4976338;28;20530;-71
2022/07/15 07:45:41;;;;;;;6.13;2.20;;;;;;;;;;4993802;28;20030;-71
2022/07/15 07:48:07;;;;;;;4.97;2.38;;;;;;;;;;4993947;28;20022;-70
2022/07/15 07:50:33;;;;;;;4.90;2.35;;;;;;;;;;4993751;28;20461;-70
2022/07/15 07:52:59;;;;;;;5.18;2.33;;;;;;;;;;4993769;28;20444;-70
2022/07/15 07:55:25;;;;;;;4.60;2.42;;;;;;;;;;4993685;28;20026;-71
2022/07/15 07:57:55;;;;;;;5.78;2.30;;;;;;;;;;4993752;28;20027;-71
2022/07/15 08:00:22;;;;;;;6.93;2.47;;;;;;;;;;4993623;28;20492;-71
2022/07/15 08:02:48;;;;;;;8.05;2.20;;;;;;;;;;4993615;28;20092;-70
2022/07/15 08:05:15;;;;;;;4.60;2.10;;;;;;;;;;4993835;28;20088;-71
2022/07/15 08:07:41;;;;;;;6.45;2.10;;;;;;;;;;4993482;28;20112;-71
2022/07/15 08:10:08;;;;;;;4.05;1.88;;;;;;;;;;4993581;28;20472;-70
2022/07/15 08:12:34;;;;;;;3.38;1.77;;;;;;;;;;4994039;28;20030;-70
2022/07/15 08:15:01;;;;;;;3.50;2.13;;;;;;;;;;4993724;28;20030;-71
2022/07/15 08:17:27;;;;;;;5.53;2.20;;;;;;;;;;4993522;28;20029;-70
2022/07/15 08:19:54;;;;;;;3.42;1.63;;;;;;;;;;4976648;28;20030;-71
2022/07/15 08:22:20;;;;;;;4.60;1.70;;;;;;;;;;4993443;28;20403;-71
2022/07/15 08:24:46;;;;;;;2.85;1.75;;;;;;;;;;4993721;28;20113;-70
2022/07/15 08:27:12;;;;;;;3.95;1.70;;;;;;;;;;4993731;28;20432;-70
2022/07/15 08:29:38;;;;;;;4.57;1.95;;;;;;;;;;4993332;28;20054;-71
2022/07/15 08:32:04;;;;;;;4.85;2.10;;;;;;;;;;4993370;28;20030;-71
2022/07/15 08:34:30;;;;;;;4.07;1.77;;;;;;;;;;4993353;28;20034;-70
2022/07/15 08:36:57;;;;;;;2.40;1.63;;;;;;;;;;4993616;28;20476;-70
2022/07/15 08:39:23;;;;;;;2.97;1.88;;;;;;;;;;4993265;28;20033;-71
2022/07/15 08:41:51;;;;;;;4.38;1.83;;;;;;;;;;4994857;28;20138;-70
2022/07/15 08:44:17;;;;;;;4.70;2.10;;;;;;;;;;4997151;28;20101;-70
2022/07/15 08:46:45;;;;;;;3.65;2.05;;;;;;;;;;4996882;28;20018;-70
2022/07/15 08:49:16;;;;;;;6.70;2.27;;;;;;;;;;4996781;28;20031;-70
2022/07/15 08:51:43;;;;;;;4.65;2.10;;;;;;;;;;4997034;28;20049;-70
2022/07/15 08:54:09;;;;;;;5.45;2.15;;;;;;;;;;4979253;28;20022;-70
2022/07/15 08:56:37;;;;;;;4.90;2.17;;;;;;;;;;4996911;28;20026;-71
2022/07/15 08:59:03;;;;;;;4.80;2.03;;;;;;;;;;4996900;28;20029;-70
2022/07/15 09:01:30;;;;;;;6.63;2.50;;;;;;;;;;4996493;28;20027;-71
2022/07/15 09:03:56;;;;;;;3.38;1.60;;;;;;;;;;4996323;28;20419;-71
2022/07/15 09:06:43;;;;;;;3.95;1.90;;;;;;;;;;4996593;28;20026;-71
2022/07/15 09:09:27;;;;;;;4.47;1.80;;;;;;;;;;4996199;28;20037;-70
2022/07/15 09:12:14;;;;;;;4.72;2.00;;;;;;;;;;4978946;28;20023;-71
2022/07/15 09:14:42;;;;;;;4.60;2.05;;;;;;;;;;4996368;28;20033;-70
2022/07/15 09:17:11;;;;;;;4.28;1.80;;;;;;;;;;4996346;28;20022;-70
2022/07/15 09:19:56;;;;;;;3.28;1.80;;;;;;;;;;4979376;28;20027;-70
2022/07/15 09:22:22;;;;;;;5.43;2.20;;;;;;;;;;4978746;28;20038;-70
2022/07/15 09:25:01;;;;;;;4.18;2.15;;;;;;;;;;4996234;28;20026;-70
2022/07/15 09:27:33;;;;;;;4.10;1.90;;;;;;;;;;4996392;28;20531;-71
2022/07/15 09:36:01;;;;;;;2.60;1.90;;;;;;;;;;4996317;28;20029;-70
2022/07/15 09:38:29;;;;;;;5.03;2.10;;;;;;;;;;4995896;28;20038;-71
2022/07/15 09:40:55;;;;;;;5.28;2.00;;;;;;;;;;4996415;28;20030;-70
2022/07/15 09:43:21;;;;;;;3.55;2.05;;;;;;;;;;4995863;28;20030;-70
2022/07/15 09:45:47;;;;;;;3.60;1.70;;;;;;;;;;4995758;28;20022;-71
2022/07/15 09:48:13;;;;;;;5.50;2.30;;;;;;;;;;4996139;28;20030;-71
2022/07/15 09:50:39;;;;;;;5.38;2.20;;;;;;;;;;4995964;28;20081;-71
2022/07/15 09:53:10;;;;;;;4.40;1.98;;;;;;;;;;4995538;28;20492;-71
2022/07/15 09:55:37;;;;;;;4.07;2.08;;;;;;;;;;4995594;28;20029;-70
2022/07/15 09:58:05;;;;;;;4.55;2.10;;;;;;;;;;4995615;28;20113;-70
2022/07/15 10:00:31;;;;;;;9.45;2.42;;;;;;;;;;4995819;28;20428;-71
2022/07/15 10:02:58;;;;;;;4.90;2.17;;;;;;;;;;4995460;28;20441;-71
2022/07/15 10:05:24;;;;;;;6.45;2.10;;;;;;;;;;4995401;28;20026;-70
2022/07/15 10:07:54;;;;;;;3.78;2.08;;;;;;;;;;4995572;28;20026;-71
2022/07/15 10:10:20;;;;;;;3.38;2.00;;;;;;;;;;4977898;28;20033;-70
2022/07/15 10:12:53;;;;;;;4.75;2.20;;;;;;;;;;4995287;28;20073;-71
2022/07/15 10:15:34;;;;;;;6.22;2.33;;;;;;;;;;4995269;28;20023;-71
2022/07/15 10:18:18;;;;;;;2.13;1.88;;;;;;;;;;4995433;28;20031;-71
2022/07/15 10:21:03;;;;;;;4.85;2.03;;;;;;;;;;4995840;28;20446;-71
2022/07/15 10:23:35;;;;;;;5.53;2.20;;;;;;;;;;4995014;28;20065;-71
2022/07/15 10:26:07;;;;;;;3.95;2.20;;;;;;;;;;4995336;28;20132;-70
2022/07/15 10:28:52;;;;;;;4.13;2.03;;;;;;;;;;4994832;28;20025;-71
2022/07/15 10:31:20;;;;;;;5.70;2.55;;;;;;;;;;4995159;28;20477;-71
2022/07/15 10:34:04;;;;;;;4.75;2.15;;;;;;;;;;4994866;28;20061;-70
2022/07/15 10:36:56;;;;;;;3.25;1.85;;;;;;;;;;4994775;28;20552;-70
2022/07/15 10:39:24;;;;;;;6.10;2.22;;;;;;;;;;4977039;28;20386;-70
2022/07/15 10:41:53;;;;;;;5.60;2.47;;;;;;;;;;4994988;28;20026;-70
2022/07/15 10:44:19;;;;;;;4.27;1.83;;;;;;;;;;4994710;28;20370;-70
2022/07/15 10:46:45;;;;;;;3.08;2.05;;;;;;;;;;4994569;28;20029;-71
2022/07/15 10:49:11;;;;;;;3.17;1.90;;;;;;;;;;4994455;28;20388;-71
2022/07/15 10:51:37;;;;;;;3.90;2.28;;;;;;;;;;4994511;28;20019;-71
2022/07/15 10:54:07;;;;;;;4.38;2.00;;;;;;;;;;4994992;28;20034;-70
2022/07/15 10:56:35;;;;;;;6.13;2.50;;;;;;;;;;4995007;28;20152;-71
2022/07/15 10:59:11;;;;;;;5.43;2.38;;;;;;;;;;4994711;28;20030;-71
2022/07/15 11:01:38;;;;;;;5.30;2.08;;;;;;;;;;4994360;28;20068;-70
2022/07/15 11:04:19;;;;;;;5.30;2.23;;;;;;;;;;4976158;28;20065;-71
2022/07/15 11:07:00;;;;;;;4.07;2.17;;;;;;;;;;4994629;28;20073;-70
2022/07/15 11:09:45;;;;;;;5.07;2.00;;;;;;;;;;4994187;28;20053;-70
2022/07/15 11:12:14;;;;;;;5.60;2.30;;;;;;;;;;4994218;28;20025;-70
2022/07/15 11:14:42;;;;;;;6.60;2.28;;;;;;;;;;4994216;28;20105;-71
2022/07/15 11:17:09;;;;;;;3.97;2.10;;;;;;;;;;4994231;28;20026;-71
2022/07/15 11:19:35;;;;;;;5.55;2.10;;;;;;;;;;4994654;28;20033;-71
2022/07/15 11:22:01;;;;;;;4.25;1.88;;;;;;;;;;4994324;28;20030;-70
2022/07/15 11:24:28;;;;;;;16.65;2.50;;;;;;;;;;4994224;28;20026;-71
2022/07/15 11:26:54;;;;;;;4.15;2.45;;;;;;;;;;4994010;28;20037;-71
2022/07/15 11:29:20;;;;;;;4.75;2.53;;;;;;;;;;4993917;28;20038;-71
2022/07/15 11:31:48;;;;;;;2.95;2.20;;;;;;;;;;4993925;28;20477;-71
2022/07/15 11:34:14;;;;;;;6.55;2.45;;;;;;;;;;4993889;28;20519;-70
2022/07/15 11:36:40;;;;;;;3.63;2.10;;;;;;;;;;4993886;28;20034;-71
2022/07/15 11:39:06;;;;;;;2.55;2.15;;;;;;;;;;4993842;28;20026;-71
2022/07/15 11:44:29;;;;;;;5.90;2.50;;;;;;;;;;4994130;28;20550;-70
2022/07/15 11:46:56;;;;;;;3.25;2.30;;;;;;;;;;4993785;28;20034;-71
2022/07/15 11:49:44;;;;;;;6.13;2.30;;;;;;;;;;4993735;28;20030;-70
2022/07/15 11:52:23;;;;;;;6.47;2.30;;;;;;;;;;4994324;28;20019;-71
2022/07/15 11:54:49;;;;;;;4.95;2.20;;;;;;;;;;4994106;28;20018;-70
2022/07/15 11:57:16;;;;;;;3.45;2.20;;;;;;;;;;4993683;28;20029;-70
2022/07/15 11:59:50;;;;;;;3.88;2.50;;;;;;;;;;4993552;28;20030;-71
2022/07/15 12:02:18;;;;;;;5.30;2.25;;;;;;;;;;4994008;28;20026;-71
2022/07/15 12:04:44;;;;;;;3.13;2.20;;;;;;;;;;4993948;28;20145;-70
2022/07/15 12:07:10;;;;;;;4.07;2.33;;;;;;;;;;4993587;28;20065;-71
2022/07/15 12:09:44;;;;;;;3.88;2.40;;;;;;;;;;4976023;28;20080;-70
2022/07/15 12:12:10;;;;;;;3.72;2.42;;;;;;;;;;4993807;28;20388;-70
2022/07/15 12:14:36;;;;;;;3.33;2.13;;;;;;;;;;4993760;28;20029;-71
2022/07/15 12:17:03;;;;;;;3.63;2.30;;;;;;;;;;4995429;28;20069;-71
2022/07/15 12:19:30;;;;;;;3.88;2.30;;;;;;;;;;4998143;28;20030;-69
2022/07/15 12:21:57;;;;;;;5.22;2.55;;;;;;;;;;4997338;28;20441;-71
2022/07/15 12:24:25;;;;;;;3.92;2.00;;;;;;;;;;4997608;28;20073;-70
2022/07/15 12:26:54;;;;;;;5.20;2.25;;;;;;;;;;4997492;28;20030;-70
2022/07/15 12:29:22;;;;;;;5.15;2.30;;;;;;;;;;4997145;28;20500;-71
2022/07/15 12:31:58;;;;;;;5.13;2.33;;;;;;;;;;4997181;28;20057;-71
2022/07/15 12:34:51;;;;;;;8.13;2.50;;;;;;;;;;4997454;28;20035;-70
2022/07/15 12:37:18;;;;;;;4.82;2.33;;;;;;;;;;4993183;28;20058;-71
2022/07/15 12:39:58;;;;;;;4.97;2.35;;;;;;;;;;4979571;28;20030;-71
2022/07/15 12:42:25;;;;;;;5.13;2.08;;;;;;;;;;4997590;28;20026;-70
2022/07/15 12:45:10;;;;;;;3.85;2.10;;;;;;;;;;4996945;28;20033;-70
2022/07/15 12:47:55;;;;;;;5.10;2.10;;;;;;;;;;4997356;28;20036;-70
2022/07/15 12:50:21;;;;;;;4.82;2.28;;;;;;;;;;4996875;28;20030;-70
2022/07/15 12:52:47;;;;;;;5.88;2.63;;;;;;;;;;4997333;28;20018;-71
2022/07/15 12:55:19;;;;;;;5.00;2.30;;;;;;;;;;4979230;28;20392;-71
2022/07/15 12:57:45;;;;;;;5.72;2.22;;;;;;;;;;4996706;28;20069;-70
2022/07/15 13:00:13;;;;;;;5.80;2.67;;;;;;;;;;4996533;28;20026;-74
2022/07/15 13:02:57;;;;;;;6.60;2.70;;;;;;;;;;4996680;28;20586;-69
2022/07/15 13:05:24;;;;;;;4.80;2.30;;;;;;;;;;4996558;28;20026;-70
2022/07/15 13:07:50;;;;;;;6.30;2.30;;;;;;;;;;4996463;28;20019;-75
2022/07/15 13:10:16;;;;;;;5.95;2.30;;;;;;;;;;4996511;28;20030;-71
2022/07/15 13:12:42;;;;;;;4.18;2.20;;;;;;;;;;4979923;28;20082;-80
2022/07/15 13:15:08;;;;;;;5.32;2.60;;;;;;;;;;4980263;28;20072;-77
2022/07/15 13:17:35;;;;;;;4.65;2.28;;;;;;;;;;4996220;28;20587;-75
2022/07/15 13:20:01;;;;;;;5.13;2.50;;;;;;;;;;4997060;28;20045;-75
2022/07/15 13:22:28;;;;;;;4.07;2.10;;;;;;;;;;4994931;28;20428;-77
2022/07/15 13:24:55;;;;;;;4.97;2.38;;;;;;;;;;4996470;28;20026;-78
2022/07/15 13:27:21;;;;;;;3.65;1.90;;;;;;;;;;4995552;28;20048;-74
2022/07/15 13:29:47;;;;;;;4.65;2.20;;;;;;;;;;4996017;28;20480;-69
2022/07/15 13:32:13;;;;;;;5.85;2.20;;;;;;;;;;4994003;28;20444;-74
2022/07/15 13:34:39;;;;;;;4.95;2.20;;;;;;;;;;4995906;28;20023;-69
2022/07/15 13:37:05;;;;;;;4.28;2.35;;;;;;;;;;4995959;28;20022;-69
2022/07/15 13:39:31;;;;;;;3.20;2.15;;;;;;;;;;4981289;28;20058;-70
2022/07/15 13:41:57;;;;;;;3.38;2.20;;;;;;;;;;4993696;28;20047;-70
2022/07/15 13:44:23;;;;;;;4.88;2.00;;;;;;;;;;4978423;28;20035;-70
2022/07/15 13:46:49;;;;;;;4.00;2.63;;;;;;;;;;4995755;28;20053;-70
2022/07/15 13:49:15;;;;;;;3.50;2.22;;;;;;;;;;4995653;28;20118;-70
2022/07/15 13:51:41;;;;;;;3.15;2.13;;;;;;;;;;4995755;28;20105;-70
2022/07/15 13:54:08;;;;;;;3.97;2.20;;;;;;;;;;4995949;28;20057;-70
2022/07/15 13:56:34;;;;;;;4.13;2.20;;;;;;;;;;4978100;28;20408;-70
2022/07/15 13:59:01;;;;;;;2.92;1.90;;;;;;;;;;4995533;28;20026;-70
2022/07/15 14:01:31;;;;;;;3.35;2.40;;;;;;;;;;4995457;28;20049;-70
2022/07/15 14:03:58;;;;;;;3.25;2.17;;;;;;;;;;4977782;28;20050;-70
2022/07/15 14:06:24;;;;;;;4.95;2.35;;;;;;;;;;4995433;28;20105;-70
2022/07/15 14:08:50;;;;;;;3.22;2.20;;;;;;;;;;4995578;28;20030;-70
2022/07/15 14:11:17;;;;;;;4.78;2.40;;;;;;;;;;4995584;28;20390;-70
2022/07/15 14:13:43;;;;;;;4.10;2.53;;;;;;;;;;4995247;28;20495;-70
2022/07/15 14:16:09;;;;;;;12.35;3.10;;;;;;;;;;4995193;28;20031;-70
2022/07/15 14:18:47;;;;;;;4.63;2.28;;;;;;;;;;4995170;28;20026;-70
2022/07/15 14:21:14;;;;;;;6.13;2.50;;;;;;;;;;4995692;28;20057;-70
2022/07/15 14:23:41;;;;;;;5.05;2.50;;;;;;;;;;4995341;28;20030;-70
2022/07/15 14:26:07;;;;;;;5.32;2.25;;;;;;;;;;4995006;28;20026;-70
2022/07/15 14:28:33;;;;;;;5.57;2.20;;;;;;;;;;4995472;28;20030;-70
2022/07/15 14:30:59;;;;;;;5.22;2.40;;;;;;;;;;4995230;28;20034;-70
2022/07/15 14:33:25;;;;;;;4.60;2.65;;;;;;;;;;4994879;28;20588;-70
2022/07/15 14:35:51;;;;;;;3.95;2.25;;;;;;;;;;4995103;28;20026;-69
2022/07/15 14:38:17;;;;;;;3.70;2.30;;;;;;;;;;4994551;28;20540;-70
2022/07/15 14:40:43;;;;;;;6.00;2.30;;;;;;;;;;4994266;28;20034;-70
2022/07/15 14:43:09;;;;;;;2.85;2.00;;;;;;;;;;4994728;28;20365;-70
2022/07/15 14:45:35;;;;;;;3.65;2.03;;;;;;;;;;4994661;28;20030;-70
2022/07/15 14:48:01;;;;;;;5.97;2.08;;;;;;;;;;4995109;28;20058;-70
2022/07/15 14:50:27;;;;;;;6.22;2.20;;;;;;;;;;4994545;28;20065;-70
2022/07/15 14:52:53;;;;;;;6.72;2.50;;;;;;;;;;4994574;28;20101;-70
2022/07/15 14:55:19;;;;;;;3.65;2.20;;;;;;;;;;4994563;28;20453;-70
2022/07/15 14:57:45;;;;;;;5.35;2.45;;;;;;;;;;4994497;28;20027;-70